Time;durP1;ratioP1;P1;durP2;ratioP2;P2;SDS_P1;SDS_P2;PMS_P1;PMS_P2;Temp;Humidity;BMP_temperature;BMP_pressure;BME280_temperature;BME280_humidity;BME280_pressure;Samples;Min_cycle;Max_cycle;Signal;HPM_P1;HPM_P2
2021/12/23 00:02:11;;;;;;;12.17;10.97;;;;;;;-1.03;85.82;101351.88;5054110;28;20238;-79
2021/12/23 00:04:39;;;;;;;12.60;11.30;;;;;;;-1.06;86.20;101334.69;5054562;28;20202;-80
2021/12/23 00:07:07;;;;;;;13.07;11.57;;;;;;;-1.14;86.37;101325.81;5055507;28;20276;-80
2021/12/23 00:10:01;;;;;;;12.57;11.37;;;;;;;-1.14;86.40;101320.69;5054337;28;20213;-79
2021/12/23 00:12:25;;;;;;;13.33;11.13;;;;;;;-1.11;86.51;101318.28;5053713;28;20261;-80
2021/12/23 00:14:52;;;;;;;11.53;10.47;;;;;;;-1.16;86.78;101306.94;5054964;28;20209;-79
2021/12/23 00:17:25;;;;;;;11.20;9.27;;;;;;;-1.19;86.96;101291.44;5053737;28;20684;-79
2021/12/23 00:23:20;;;;;;;11.00;9.90;;;;;;;-1.27;87.06;101283.44;5054107;28;20292;-77
2021/12/23 00:25:29;;;;;;;11.67;10.37;;;;;;;-1.39;84.75;101323.88;5054747;28;20208;-80
2021/12/23 00:27:55;;;;;;;11.67;10.47;;;;;;;-1.32;85.09;101338.69;5055187;28;20213;-79
2021/12/23 00:30:22;;;;;;;11.63;10.57;;;;;;;-1.22;85.47;101322.91;5055877;28;20205;-78
2021/12/23 00:32:49;;;;;;;12.47;10.67;;;;;;;-1.16;85.83;101311.19;5058071;28;20621;-80
2021/12/23 00:35:15;;;;;;;11.10;10.00;;;;;;;-1.11;85.37;101304.56;5058344;28;20221;-80
2021/12/23 00:37:45;;;;;;;10.63;9.80;;;;;;;-1.04;85.26;101298.91;5058043;28;20201;-78
2021/12/23 00:40:16;;;;;;;10.63;9.53;;;;;;;-1.04;85.54;101309.16;5058309;28;20212;-79
2021/12/23 00:42:43;;;;;;;10.87;9.87;;;;;;;-1.10;85.08;101291.81;5058635;28;20645;-80
2021/12/23 00:45:10;;;;;;;12.07;10.83;;;;;;;-1.10;84.90;101298.66;5058600;28;20208;-80
2021/12/23 00:47:36;;;;;;;11.77;10.57;;;;;;;-1.10;84.63;101307.19;5058008;28;20225;-80
2021/12/23 00:50:04;;;;;;;11.13;10.03;;;;;;;-1.06;83.88;101328.72;5059669;28;20282;-80
2021/12/23 00:52:34;;;;;;;12.23;9.97;;;;;;;-1.09;84.04;101326.91;5058121;28;20205;-80
2021/12/23 00:55:00;;;;;;;11.67;10.37;;;;;;;-1.04;83.53;101325.38;5039079;28;20210;-80
2021/12/23 00:57:30;;;;;;;11.20;10.10;;;;;;;-1.02;83.43;101328.91;5037511;28;20205;-78
2021/12/23 00:59:58;;;;;;;11.50;10.40;;;;;;;-1.10;80.70;101370.38;5036085;28;20218;-78
2021/12/23 01:02:29;;;;;;;10.87;9.83;;;;;;;-1.01;82.57;101345.16;5035943;28;20225;-78
2021/12/23 01:04:55;;;;;;;11.83;10.70;;;;;;;-0.96;82.96;101318.03;5036235;28;20198;-78
2021/12/23 01:07:24;;;;;;;10.67;9.67;;;;;;;-0.91;82.40;101316.53;5036389;28;20292;-79
2021/12/23 01:09:50;;;;;;;11.27;10.17;;;;;;;-0.97;81.72;101320.53;5038296;28;20641;-80
2021/12/23 01:12:20;;;;;;;11.53;10.33;;;;;;;-1.00;81.31;101344.34;5038130;28;20280;-80
2021/12/23 01:14:58;;;;;;;11.80;10.60;;;;;;;-0.91;81.31;101331.94;5038178;28;20206;-80
2021/12/23 01:17:52;;;;;;;11.23;10.13;;;;;;;-0.83;80.75;101337.38;5037863;28;20214;-80
2021/12/23 01:20:18;;;;;;;11.30;10.20;;;;;;;-0.91;79.28;101372.03;5037748;28;20217;-80
2021/12/23 01:22:44;;;;;;;10.83;9.83;;;;;;;-0.85;79.92;101372.31;5056253;28;20205;-80
2021/12/23 01:25:11;;;;;;;10.80;9.80;;;;;;;-0.77;80.26;101363.25;5058158;28;20231;-80
2021/12/23 01:27:37;;;;;;;11.93;10.83;;;;;;;-0.83;78.93;101389.50;5058470;28;20574;-80
2021/12/23 01:30:06;;;;;;;13.17;11.00;;;;;;;-0.77;79.77;101368.38;5058411;28;20212;-80
2021/12/23 01:32:33;;;;;;;11.20;10.03;;;;;;;-0.73;80.18;101365.13;5058963;28;20198;-80
2021/12/23 01:34:59;;;;;;;10.57;9.47;;;;;;;-0.77;78.30;101377.75;5059282;28;20639;-80
2021/12/23 01:37:27;;;;;;;10.80;9.70;;;;;;;-0.70;79.00;101398.56;5058853;28;20275;-80
2021/12/23 01:39:53;;;;;;;11.57;10.43;;;;;;;-0.67;79.37;101369.66;5058955;28;20275;-80
2021/12/23 01:42:20;;;;;;;10.53;9.50;;;;;;;-0.73;79.34;101365.13;5057526;28;20225;-79
2021/12/23 01:44:46;;;;;;;12.77;9.77;;;;;;;-0.65;79.01;101362.91;5056174;28;20267;-79
2021/12/23 01:47:17;;;;;;;11.50;10.40;;;;;;;-0.63;78.38;101374.09;5056085;28;20636;-80
2021/12/23 01:49:43;;;;;;;10.30;9.40;;;;;;;-0.69;77.52;101399.47;5056010;28;20648;-77
2021/12/23 01:52:09;;;;;;;10.57;9.57;;;;;;;-0.74;76.21;101418.91;5055327;28;20607;-80
2021/12/23 01:54:36;;;;;;;10.90;9.90;;;;;;;-0.76;77.01;101423.09;5056085;28;20238;-79
2021/12/23 01:57:02;;;;;;;10.47;9.47;;;;;;;-0.82;78.02;101391.25;5056460;28;20205;-79
2021/12/23 01:59:29;;;;;;;11.23;10.07;;;;;;;-0.75;79.83;101355.59;5056271;28;20228;-80
2021/12/23 02:01:56;;;;;;;10.70;9.57;;;;;;;-0.78;81.02;101317.06;5055484;28;20229;-79
2021/12/23 02:04:23;;;;;;;10.73;9.73;;;;;;;-0.80;80.36;101319.53;5055864;28;20680;-80
2021/12/23 02:06:51;;;;;;;10.93;9.87;;;;;;;-0.85;80.22;101316.81;5056416;28;20256;-79
2021/12/23 02:09:18;;;;;;;12.10;10.27;;;;;;;-0.82;80.15;101305.78;5056092;28;20224;-80
2021/12/23 02:11:44;;;;;;;11.03;9.93;;;;;;;-0.78;78.83;101329.88;5055396;28;20896;-80
2021/12/23 02:14:11;;;;;;;9.80;8.80;;;;;;;-0.75;78.58;101336.00;5056280;28;20213;-79
2021/12/23 02:16:38;;;;;;;10.37;9.37;;;;;;;-0.68;79.34;101316.59;5055615;28;20209;-79
2021/12/23 02:19:04;;;;;;;10.80;9.70;;;;;;;-0.72;80.66;101277.16;5055946;28;20206;-80
2021/12/23 02:21:33;;;;;;;11.10;10.00;;;;;;;-0.64;79.93;101292.84;5055301;28;20249;-79
2021/12/23 02:24:02;;;;;;;10.37;9.37;;;;;;;-0.60;78.89;101300.72;5056271;28;20212;-80
2021/12/23 02:26:29;;;;;;;12.13;9.83;;;;;;;-0.58;76.25;101352.06;5056491;28;20224;-80
2021/12/23 02:28:55;;;;;;;11.40;9.73;;;;;;;-0.57;76.37;101376.91;5056351;28;20201;-79
2021/12/23 02:31:21;;;;;;;11.93;9.37;;;;;;;-0.55;77.23;101374.41;5056292;28;20221;-80
2021/12/23 02:33:48;;;;;;;10.50;9.10;;;;;;;-0.54;77.11;101363.31;5054858;28;20206;-79
2021/12/23 02:36:14;;;;;;;11.17;9.50;;;;;;;-0.56;75.19;101398.28;5056505;28;20231;-80
2021/12/23 02:38:42;;;;;;;9.67;8.77;;;;;;;-0.49;76.07;101397.75;5056104;28;20641;-80
2021/12/23 02:41:08;;;;;;;10.33;9.43;;;;;;;-0.51;76.86;101381.41;5055990;28;20283;-79
2021/12/23 02:43:36;;;;;;;10.13;8.80;;;;;;;-0.52;74.53;101395.91;5055298;28;20698;-80
2021/12/23 02:46:03;;;;;;;10.40;8.47;;;;;;;-0.58;73.29;101436.69;5055907;28;20608;-80
2021/12/23 02:48:32;;;;;;;10.10;9.10;;;;;;;-0.54;74.13;101423.19;5055605;28;20209;-80
2021/12/23 02:50:59;;;;;;;10.13;8.97;;;;;;;-0.52;73.77;101443.75;5055444;28;20225;-80
2021/12/23 02:53:26;;;;;;;10.37;9.27;;;;;;;-0.41;75.64;101410.06;5055206;28;20251;-79
2021/12/23 02:55:55;;;;;;;10.30;9.30;;;;;;;-0.41;74.68;101404.94;5055948;28;20208;-79
2021/12/23 02:58:22;;;;;;;10.50;9.13;;;;;;;-0.42;75.99;101385.25;5055839;28;20202;-80
2021/12/23 03:00:51;;;;;;;9.50;8.60;;;;;;;-0.51;72.61;101423.31;5055746;28;20228;-79
2021/12/23 03:03:18;;;;;;;9.87;9.07;;;;;;;-0.54;76.04;101353.06;5054422;28;20212;-80
2021/12/23 03:05:47;;;;;;;10.47;9.00;;;;;;;-0.58;73.88;101377.69;5054736;28;20267;-80
2021/12/23 03:08:14;;;;;;;9.30;8.50;;;;;;;-0.46;75.13;101360.25;5055340;28;20221;-80
2021/12/23 03:10:43;;;;;;;11.43;9.00;;;;;;;-0.38;75.34;101349.44;5054656;28;20275;-79
2021/12/23 03:13:10;;;;;;;10.83;9.80;;;;;;;-0.46;74.51;101367.06;5054539;28;20262;-80
2021/12/23 03:15:37;;;;;;;11.97;10.63;;;;;;;-0.44;74.84;101350.06;5054732;28;20213;-80
2021/12/23 03:18:03;;;;;;;11.70;9.70;;;;;;;-0.43;75.89;101332.19;5055055;28;20212;-80
2021/12/23 03:20:32;;;;;;;12.23;9.40;;;;;;;-0.37;74.62;101346.06;5054849;28;20291;-80
2021/12/23 03:22:58;;;;;;;11.07;9.97;;;;;;;-0.46;74.35;101356.81;5038376;28;20205;-79
2021/12/23 03:25:24;;;;;;;11.17;10.17;;;;;;;-0.46;75.16;101354.25;5054344;28;20209;-79
2021/12/23 03:27:51;;;;;;;11.53;9.80;;;;;;;-0.51;75.04;101343.81;5054473;28;20727;-80
2021/12/23 03:30:20;;;;;;;10.40;9.50;;;;;;;-0.56;74.13;101357.25;5054947;28;20572;-79
2021/12/23 03:32:46;;;;;;;10.70;9.70;;;;;;;-0.61;72.59;101381.03;5054435;28;20754;-79
2021/12/23 03:35:13;;;;;;;10.07;8.93;;;;;;;-0.51;75.37;101337.81;5054827;28;20251;-80
2021/12/23 03:37:39;;;;;;;11.13;9.83;;;;;;;-0.48;75.11;101309.72;5054541;28;20635;-80
2021/12/23 03:40:07;;;;;;;11.17;9.63;;;;;;;-0.51;73.14;101366.03;5054247;28;20209;-80
2021/12/23 03:42:34;;;;;;;11.73;9.30;;;;;;;-0.52;73.26;101388.22;5054416;28;20214;-80
2021/12/23 03:45:00;;;;;;;11.90;10.13;;;;;;;-0.35;73.76;101367.53;5054693;28;20258;-80
2021/12/23 03:47:29;;;;;;;10.87;9.87;;;;;;;-0.27;72.90;101372.16;5055013;28;20233;-80
2021/12/23 03:49:56;;;;;;;9.77;8.87;;;;;;;-0.34;73.76;101369.25;5053938;28;20296;-79
2021/12/23 03:52:22;;;;;;;10.70;9.67;;;;;;;-0.29;74.86;101330.16;5054079;28;20708;-80
2021/12/23 03:54:48;;;;;;;10.97;9.87;;;;;;;-0.25;75.77;101300.38;5054865;28;20205;-80
2021/12/23 03:57:15;;;;;;;10.40;9.40;;;;;;;-0.23;77.38;101250.00;5054421;28;20260;-79
2021/12/23 03:59:41;;;;;;;10.93;9.93;;;;;;;-0.24;77.21;101227.72;5054515;28;20209;-80
2021/12/23 04:02:07;;;;;;;11.27;10.07;;;;;;;-0.28;78.13;101197.63;5054589;28;20229;-80
2021/12/23 04:04:35;;;;;;;11.80;10.00;;;;;;;-0.35;75.76;101221.31;5055745;28;20205;-80
2021/12/23 04:07:02;;;;;;;11.90;10.10;;;;;;;-0.31;76.65;101251.41;5057467;28;20229;-78
2021/12/23 04:09:28;;;;;;;10.80;9.53;;;;;;;-0.27;76.54;101237.88;5058242;28;20753;-80
2021/12/23 04:11:56;;;;;;;10.87;9.53;;;;;;;-0.22;76.75;101226.06;5057751;28;20230;-80
2021/12/23 04:14:22;;;;;;;11.67;10.20;;;;;;;-0.23;76.72;101219.22;5058708;28;20282;-79
2021/12/23 04:16:49;;;;;;;11.43;10.23;;;;;;;-0.22;76.73;101211.59;5058260;28;20251;-80
2021/12/23 04:19:16;;;;;;;11.70;9.57;;;;;;;-0.25;77.65;101193.50;5058772;28;20206;-80
2021/12/23 04:21:44;;;;;;;11.70;10.60;;;;;;;-0.38;76.36;101204.09;5057360;28;20233;-79
2021/12/23 04:24:11;;;;;;;11.77;10.67;;;;;;;-0.29;76.86;101204.47;5058124;28;20209;-80
2021/12/23 04:26:38;;;;;;;12.23;10.90;;;;;;;-0.26;75.60;101227.69;5058598;28;20213;-80
2021/12/23 04:29:05;;;;;;;10.83;9.93;;;;;;;-0.25;76.16;101215.72;5060997;28;20206;-80
2021/12/23 04:31:32;;;;;;;11.63;10.53;;;;;;;-0.21;75.23;101227.84;5058392;28;20272;-79
2021/12/23 04:33:59;;;;;;;11.90;10.80;;;;;;;-0.20;75.29;101201.34;5058252;28;20212;-80
2021/12/23 04:36:27;;;;;;;11.57;10.57;;;;;;;-0.16;75.28;101212.63;5057992;28;20588;-80
2021/12/23 04:38:55;;;;;;;11.67;10.57;;;;;;;-0.21;75.38;101222.72;5057230;28;20691;-78
2021/12/23 04:41:21;;;;;;;11.47;10.37;;;;;;;-0.22;75.31;101219.28;5055982;28;20248;-78
2021/12/23 04:43:48;;;;;;;11.50;10.33;;;;;;;-0.22;75.66;101233.78;5057095;28;20687;-80
2021/12/23 04:46:14;;;;;;;10.70;9.70;;;;;;;-0.21;74.61;101235.53;5058008;28;20201;-80
2021/12/23 04:48:41;;;;;;;11.40;10.30;;;;;;;-0.37;73.93;101248.59;5057559;28;20233;-80
2021/12/23 04:51:07;;;;;;;11.93;10.83;;;;;;;-0.32;75.22;101239.38;5057683;28;20221;-80
2021/12/23 04:53:34;;;;;;;11.80;10.70;;;;;;;-0.53;73.63;101265.09;5057788;28;20683;-80
2021/12/23 04:56:01;;;;;;;13.27;11.23;;;;;;;-0.56;73.87;101270.09;5057850;28;20223;-80
2021/12/23 04:58:28;;;;;;;12.20;10.87;;;;;;;-0.56;73.77;101263.25;5057931;28;20235;-80
2021/12/23 05:00:54;;;;;;;12.27;11.07;;;;;;;-0.62;73.94;101266.44;5057336;28;20229;-80
2021/12/23 05:03:23;;;;;;;11.47;10.27;;;;;;;-0.62;74.12;101256.19;5056965;28;20231;-80
2021/12/23 05:05:50;;;;;;;11.83;10.73;;;;;;;-0.53;75.17;101224.06;5057824;28;20765;-80
2021/12/23 05:08:17;;;;;;;11.13;9.93;;;;;;;-0.54;74.53;101240.25;5057273;28;20255;-80
2021/12/23 05:10:43;;;;;;;12.13;11.13;;;;;;;-0.52;74.88;101213.84;5058167;28;20275;-80
2021/12/23 05:13:13;;;;;;;11.43;10.33;;;;;;;-0.54;73.78;101228.28;5057488;28;20206;-80
2021/12/23 05:15:40;;;;;;;12.90;11.23;;;;;;;-0.54;73.90;101240.25;5057833;28;20296;-80
2021/12/23 05:18:07;;;;;;;12.83;11.63;;;;;;;-0.51;74.82;101219.88;5058040;28;20205;-79
2021/12/23 05:22:59;;;;;;;12.70;11.50;;;;;;;-0.57;76.34;101147.84;5072883;22;20229;-79
2021/12/23 05:25:25;;;;;;;11.40;10.27;;;;;;;-0.61;74.32;101164.78;5077273;28;20258;-79
2021/12/23 05:27:54;;;;;;;12.47;11.27;;;;;;;-0.43;75.82;101170.59;5078021;28;20274;-79
2021/12/23 05:30:24;;;;;;;12.47;11.33;;;;;;;-0.34;75.41;101167.50;5078432;28;20236;-79
2021/12/23 05:32:51;;;;;;;12.40;11.20;;;;;;;-0.22;76.46;101149.13;5077911;28;20220;-79
2021/12/23 05:35:19;;;;;;;11.53;10.27;;;;;;;-0.11;75.88;101146.94;5077991;28;20205;-79
2021/12/23 05:37:47;;;;;;;11.53;10.33;;;;;;;-0.04;75.44;101162.63;5077404;28;20205;-80
2021/12/23 05:40:16;;;;;;;12.47;11.17;;;;;;;-0.01;75.68;101157.59;5077988;28;20638;-79
2021/12/23 05:42:43;;;;;;;11.60;10.50;;;;;;;0.04;76.33;101131.22;5077178;28;20603;-79
2021/12/23 05:45:11;;;;;;;11.70;10.60;;;;;;;0.04;76.17;101137.25;5077733;28;20200;-79
2021/12/23 05:47:39;;;;;;;11.67;10.57;;;;;;;0.02;75.41;101135.41;5077270;28;20231;-80
2021/12/23 05:50:08;;;;;;;13.37;12.07;;;;;;;-0.04;75.39;101154.03;5077716;28;20587;-79
2021/12/23 05:52:34;;;;;;;12.07;10.87;;;;;;;0.02;75.72;101132.84;5063688;28;20238;-79
2021/12/23 05:55:02;;;;;;;12.40;11.10;;;;;;;-0.08;76.51;101113.69;5077024;28;20205;-79
2021/12/23 05:57:28;;;;;;;12.70;11.43;;;;;;;-0.01;75.37;101142.19;5076527;28;20204;-79
2021/12/23 05:59:55;;;;;;;12.67;11.47;;;;;;;0.02;73.83;101168.78;5077535;28;20274;-80
2021/12/23 06:02:21;;;;;;;11.63;10.53;;;;;;;0.07;72.91;101174.97;5076284;28;20303;-79
2021/12/23 06:04:49;;;;;;;12.13;11.03;;;;;;;0.13;73.50;101170.91;5076168;28;20239;-78
2021/12/23 06:07:15;;;;;;;13.37;11.13;;;;;;;0.17;74.46;101159.06;5075913;28;20262;-79
2021/12/23 06:09:42;;;;;;;13.63;12.43;;;;;;;0.18;74.08;101141.16;5076073;28;20201;-79
2021/12/23 06:12:09;;;;;;;12.33;11.17;;;;;;;0.15;76.12;101086.25;5075523;28;20225;-79
2021/12/23 06:14:35;;;;;;;12.83;11.63;;;;;;;0.19;76.05;101058.16;5075923;28;20204;-79
2021/12/23 06:17:02;;;;;;;13.93;12.43;;;;;;;0.25;75.60;101061.78;5075898;28;20261;-80
2021/12/23 06:19:28;;;;;;;13.40;11.97;;;;;;;0.27;75.29;101048.16;5076309;28;20283;-79
2021/12/23 06:21:56;;;;;;;13.30;12.10;;;;;;;0.23;75.17;101041.19;5066485;28;20237;-79
2021/12/23 06:24:22;;;;;;;12.83;11.50;;;;;;;0.27;75.30;101011.34;5070973;28;20197;-79
2021/12/23 06:26:49;;;;;;;14.73;13.23;;;;;;;0.28;75.07;101008.84;5074733;28;20205;-79
2021/12/23 06:29:15;;;;;;;13.63;12.43;;;;;;;0.22;75.81;100982.06;5074506;28;20270;-77
2021/12/23 06:31:41;;;;;;;14.27;12.80;;;;;;;0.08;76.08;100956.84;5073805;28;20280;-79
2021/12/23 06:34:08;;;;;;;13.43;12.03;;;;;;;0.06;76.88;100932.84;5074488;28;20262;-78
2021/12/23 06:36:35;;;;;;;13.80;12.50;;;;;;;0.01;76.78;100918.97;5074223;28;20201;-79
2021/12/23 06:39:04;;;;;;;14.07;12.67;;;;;;;0.03;77.18;100930.16;5081086;28;20307;-79
2021/12/23 06:41:31;;;;;;;14.43;12.27;;;;;;;-0.13;76.06;100980.13;5090652;28;20251;-79
2021/12/23 06:43:57;;;;;;;13.37;12.07;;;;;;;-0.10;74.48;101031.53;5090196;28;20209;-79
2021/12/23 06:46:23;;;;;;;13.53;12.23;;;;;;;-0.03;75.86;101024.91;5096687;28;20188;-79
2021/12/23 06:48:52;;;;;;;13.10;11.80;;;;;;;-0.15;76.74;101004.84;5083293;28;20278;-79
2021/12/23 06:51:18;;;;;;;14.00;12.47;;;;;;;-0.17;76.76;100980.84;5073207;28;20229;-78
2021/12/23 06:53:45;;;;;;;14.03;12.80;;;;;;;-0.05;77.10;100982.94;5066978;28;20617;-78
2021/12/23 06:56:16;;;;;;;14.53;13.07;;;;;;;-0.02;78.16;100965.06;5076525;28;20626;-79
2021/12/23 06:58:47;;;;;;;14.07;11.97;;;;;;;0.04;78.98;100949.88;5077334;28;20200;-79
2021/12/23 07:01:17;;;;;;;12.10;10.90;;;;;;;-0.16;77.99;100974.88;5075939;28;20252;-79
2021/12/23 07:04:02;;;;;;;13.70;11.57;;;;;;;-0.05;78.47;100952.16;5075294;28;20204;-79
2021/12/23 07:06:31;;;;;;;14.13;12.77;;;;;;;-0.02;78.39;100948.00;5075028;28;20224;-79
2021/12/23 07:08:58;;;;;;;13.67;12.27;;;;;;;0.05;78.26;100940.47;5075536;28;20228;-79
2021/12/23 07:11:26;;;;;;;13.57;12.27;;;;;;;0.12;78.01;100930.47;5075241;28;20224;-79
2021/12/23 07:13:52;;;;;;;13.57;12.27;;;;;;;0.09;78.42;100926.91;5075676;28;20231;-78
2021/12/23 07:16:19;;;;;;;13.70;12.30;;;;;;;0.03;77.33;100955.81;5075634;28;20230;-79
2021/12/23 07:18:45;;;;;;;13.53;12.30;;;;;;;-0.01;76.90;100984.78;5073304;28;20205;-77
2021/12/23 07:21:11;;;;;;;14.03;12.57;;;;;;;0.08;77.58;100941.47;5071196;28;20236;-77
2021/12/23 07:23:38;;;;;;;13.40;12.03;;;;;;;0.15;78.58;100899.75;5052560;28;20205;-78
2021/12/23 07:26:04;;;;;;;13.97;12.67;;;;;;;0.18;78.51;100914.38;5053341;28;20248;-79
2021/12/23 07:28:32;;;;;;;16.17;12.27;;;;;;;0.29;78.23;100912.13;5052356;28;20700;-78
2021/12/23 07:30:58;;;;;;;14.37;12.97;;;;;;;0.20;76.80;100943.53;5053063;28;20248;-77
2021/12/23 07:33:24;;;;;;;14.87;13.40;;;;;;;0.28;77.63;100938.63;5052456;28;20197;-77
2021/12/23 07:35:51;;;;;;;13.40;12.17;;;;;;;0.34;77.35;100937.13;5053059;28;20255;-75
2021/12/23 07:38:17;;;;;;;15.57;14.07;;;;;;;0.37;77.06;100939.78;5052996;28;20201;-76
2021/12/23 07:40:44;;;;;;;16.37;14.70;;;;;;;0.39;77.10;100924.41;5056173;28;20259;-77
2021/12/23 07:43:31;;;;;;;14.87;13.47;;;;;;;0.44;76.85;100916.84;5057070;28;20198;-77
2021/12/23 07:45:59;;;;;;;13.60;12.33;;;;;;;0.37;75.86;100941.47;5055888;28;20201;-77
2021/12/23 07:48:25;;;;;;;14.83;13.43;;;;;;;0.41;76.57;100955.28;5055710;28;20311;-77
2021/12/23 07:50:53;;;;;;;13.47;12.10;;;;;;;0.22;74.81;100980.41;5054000;28;20619;-78
2021/12/23 07:53:20;;;;;;;14.13;12.87;;;;;;;0.04;74.87;100997.75;5055946;28;20210;-77
2021/12/23 07:55:46;;;;;;;18.23;14.43;;;;;;;-0.01;75.81;100979.66;5059414;28;20216;-77
2021/12/23 07:58:12;;;;;;;16.17;14.67;;;;;;;0.09;76.80;100955.16;5054799;28;20190;-77
2021/12/23 08:00:39;;;;;;;14.23;12.80;;;;;;;0.18;76.96;100946.06;5055691;28;20615;-77
2021/12/23 08:03:07;;;;;;;15.10;13.67;;;;;;;0.21;76.23;100936.69;5054975;28;20198;-77
2021/12/23 08:05:34;;;;;;;14.47;13.10;;;;;;;0.12;75.40;100951.00;5055268;28;20255;-77
2021/12/23 08:08:00;;;;;;;14.03;12.80;;;;;;;0.07;75.99;100933.69;5047516;28;20194;-77
2021/12/23 08:10:27;;;;;;;15.97;14.37;;;;;;;0.12;76.43;100896.19;5055881;28;20201;-77
2021/12/23 08:12:54;;;;;;;15.87;14.37;;;;;;;0.18;77.95;100879.31;5055392;28;20279;-78
2021/12/23 08:15:20;;;;;;;16.63;14.60;;;;;;;0.16;76.72;100901.50;5055228;28;20201;-77
2021/12/23 08:17:47;;;;;;;16.43;14.77;;;;;;;0.22;77.19;100902.50;5055544;28;20207;-78
2021/12/23 08:20:16;;;;;;;15.50;14.00;;;;;;;0.05;77.67;100894.28;5054864;28;20201;-77
2021/12/23 08:22:44;;;;;;;16.63;14.77;;;;;;;0.07;78.22;100877.25;5051399;28;20233;-77
2021/12/23 08:25:11;;;;;;;17.93;16.07;;;;;;;0.05;77.44;100872.06;5061942;28;20220;-79
2021/12/23 08:27:38;;;;;;;16.10;14.37;;;;;;;0.07;78.10;100856.72;5055134;28;20255;-78
2021/12/23 08:30:07;;;;;;;16.20;14.70;;;;;;;0.05;77.87;100860.94;5054605;28;20271;-76
2021/12/23 08:32:33;;;;;;;15.90;14.40;;;;;;;0.09;76.30;100888.44;5054170;28;20279;-78
2021/12/23 08:35:00;;;;;;;16.60;14.03;;;;;;;0.16;76.31;100898.94;5052607;28;20224;-78
2021/12/23 08:37:28;;;;;;;15.23;13.83;;;;;;;0.17;75.98;100916.06;5054923;28;20251;-77
2021/12/23 08:39:55;;;;;;;16.30;14.60;;;;;;;0.12;75.95;100933.03;5054515;28;20255;-77
2021/12/23 08:42:21;;;;;;;17.53;14.30;;;;;;;0.13;75.99;100934.75;5054394;28;20217;-77
2021/12/23 08:44:48;;;;;;;15.13;13.73;;;;;;;0.15;75.33;100937.38;5054462;28;20622;-78
2021/12/23 08:47:15;;;;;;;15.17;13.77;;;;;;;0.10;75.83;100926.09;5054793;28;20193;-77
2021/12/23 08:49:43;;;;;;;15.70;14.10;;;;;;;0.10;75.87;100936.34;5051921;28;20248;-77
2021/12/23 08:52:09;;;;;;;16.77;15.07;;;;;;;0.18;78.46;100899.84;5053797;28;20225;-78
2021/12/23 08:54:37;;;;;;;15.67;14.07;;;;;;;0.17;78.28;100885.25;5058464;28;20201;-78
2021/12/23 08:57:05;;;;;;;17.03;14.77;;;;;;;0.27;76.63;100906.94;5054495;28;20202;-77
2021/12/23 08:59:32;;;;;;;16.60;15.00;;;;;;;0.39;76.80;100916.72;5054209;28;20212;-77
2021/12/23 09:01:58;;;;;;;17.43;15.73;;;;;;;0.52;76.57;100923.09;5053927;28;20393;-76
2021/12/23 09:04:25;;;;;;;16.60;15.00;;;;;;;0.60;76.64;100919.06;5053901;28;20714;-78
2021/12/23 09:06:51;;;;;;;15.73;14.20;;;;;;;0.59;75.39;100946.47;5054635;28;20205;-79
2021/12/23 09:09:18;;;;;;;16.80;15.10;;;;;;;0.58;75.67;100957.53;5054946;28;20213;-78
2021/12/23 09:11:46;;;;;;;16.87;15.27;;;;;;;0.54;74.64;100960.84;5054688;28;20225;-77
2021/12/23 09:14:13;;;;;;;16.43;14.90;;;;;;;0.59;75.29;100937.84;5054724;28;20312;-78
2021/12/23 09:16:39;;;;;;;16.53;14.90;;;;;;;0.56;74.82;100930.94;5053726;28;20205;-77
2021/12/23 09:19:07;;;;;;;17.03;15.27;;;;;;;0.58;76.56;100903.59;5053953;28;20189;-78
2021/12/23 09:21:34;;;;;;;17.23;15.57;;;;;;;0.65;76.49;100873.81;5054041;28;20291;-77
2021/12/23 09:24:01;;;;;;;17.20;15.60;;;;;;;0.69;76.25;100874.78;5051992;28;20197;-77
2021/12/23 09:26:29;;;;;;;17.50;15.70;;;;;;;0.59;75.79;100864.25;5053719;28;20224;-77
2021/12/23 09:29:03;;;;;;;22.40;17.10;;;;;;;0.32;75.57;100850.63;5053380;28;20222;-78
2021/12/23 09:34:13;;;;;;;17.73;15.73;;;;;;;0.20;75.74;100861.41;5052611;28;20634;-77
2021/12/23 09:36:40;;;;;;;16.50;14.93;;;;;;;0.21;75.76;100842.59;5053541;28;20247;-77
2021/12/23 09:39:11;;;;;;;18.10;16.37;;;;;;;0.30;75.72;100831.72;5053744;28;20664;-77
2021/12/23 09:41:39;;;;;;;105.23;50.60;;;;;;;0.44;77.74;100811.56;5052509;28;20725;-76
2021/12/23 09:44:09;;;;;;;18.33;16.60;;;;;;;0.45;78.32;100778.22;5054416;28;20201;-77
2021/12/23 09:46:36;;;;;;;17.23;15.57;;;;;;;0.47;78.58;100752.59;5053878;28;20209;-78
2021/12/23 09:49:05;;;;;;;17.13;15.33;;;;;;;0.33;75.65;100803.56;5053692;28;20213;-78
2021/12/23 09:51:32;;;;;;;17.73;15.93;;;;;;;0.31;75.33;100849.72;5054034;28;20221;-77
2021/12/23 09:54:01;;;;;;;19.43;15.53;;;;;;;0.29;75.30;100865.91;5061896;28;20197;-78
2021/12/23 09:56:29;;;;;;;17.63;15.17;;;;;;;0.41;75.62;100862.84;5053939;28;20749;-78
2021/12/23 09:58:58;;;;;;;19.07;17.03;;;;;;;0.50;76.55;100834.88;5053272;28;20206;-77
2021/12/23 10:01:26;;;;;;;17.27;15.47;;;;;;;0.55;80.52;100757.09;5053106;28;20274;-77
2021/12/23 10:03:52;;;;;;;17.13;15.57;;;;;;;0.71;81.45;100708.69;5051912;28;20201;-77
2021/12/23 10:06:19;;;;;;;19.93;18.03;;;;;;;0.83;78.79;100754.38;5052874;28;20201;-77
2021/12/23 10:08:46;;;;;;;17.67;15.97;;;;;;;0.90;78.58;100741.75;5052433;28;20233;-78
2021/12/23 10:11:21;;;;;;;18.10;15.43;;;;;;;1.10;79.67;100665.09;5052995;28;20221;-78
2021/12/23 10:30:50;;;;;;;18.87;16.90;;;;;;;0.61;74.77;100820.59;5049368;28;20279;-77
2021/12/23 10:38:52;;;;;;;17.90;16.10;;;;;;;0.69;75.89;100795.13;5051172;28;20335;-77
2021/12/23 10:41:21;;;;;;;18.43;16.40;;;;;;;0.72;75.17;100792.66;5051033;28;20739;-76
2021/12/23 10:43:53;;;;;;;17.90;16.10;;;;;;;0.66;76.61;100766.81;5052846;28;20607;-76
2021/12/23 10:46:25;;;;;;;22.60;16.67;;;;;;;0.59;75.14;100768.31;5051141;28;20263;-76
2021/12/23 10:49:04;;;;;;;22.17;18.30;;;;;;;0.68;76.09;100789.13;5051553;28;20266;-77
2021/12/23 10:51:57;;;;;;;21.63;17.37;;;;;;;0.77;76.78;100773.97;5049898;28;20244;-77
2021/12/23 10:58:00;;;;;;;21.30;17.03;;;;;;;0.99;77.40;100720.53;5049338;28;20291;-77
2021/12/23 11:00:17;;;;;;;19.20;17.20;;;;;;;1.01;75.20;100784.81;5049657;28;20200;-76
2021/12/23 11:03:01;;;;;;;18.00;16.23;;;;;;;1.15;75.73;100748.38;5047711;28;20267;-77
2021/12/23 11:05:33;;;;;;;19.10;17.33;;;;;;;1.20;74.73;100758.75;5048936;28;20190;-75
2021/12/23 11:08:11;;;;;;;20.97;16.40;;;;;;;1.28;74.35;100740.94;5050817;28;20682;-75
2021/12/23 11:10:59;;;;;;;17.90;16.03;;;;;;;1.23;74.42;100753.69;5050905;28;20213;-77
2021/12/23 11:36:04;;;;;;;18.00;16.07;;;;;;;1.05;74.41;100737.81;5049384;28;20280;-78
2021/12/23 11:38:39;;;;;;;18.07;16.27;;;;;;;1.24;74.88;100718.56;5049349;28;20201;-76
2021/12/23 11:41:18;;;;;;;19.20;16.33;;;;;;;1.35;75.83;100699.97;5048055;28;20331;-76
2021/12/23 11:43:48;;;;;;;20.90;17.47;;;;;;;1.26;73.91;100711.75;5069917;22;20369;-76
2021/12/23 11:46:17;;;;;;;18.53;16.40;;;;;;;1.36;73.71;100729.97;5070025;28;20208;-78
2021/12/23 11:48:45;;;;;;;19.17;17.17;;;;;;;1.38;74.20;100715.47;5068116;28;20335;-78
2021/12/23 11:51:18;;;;;;;18.30;16.60;;;;;;;1.47;73.72;100725.09;5073530;28;20607;-77
2021/12/23 11:53:48;;;;;;;24.67;19.03;;;;;;;1.52;72.96;100728.63;5067436;28;20244;-78
2021/12/23 11:56:17;;;;;;;19.90;17.80;;;;;;;1.50;73.30;100739.72;5073050;28;20208;-78
2021/12/23 11:58:46;;;;;;;18.70;16.90;;;;;;;1.38;71.67;100769.47;5074720;28;20197;-79
2021/12/23 12:01:16;;;;;;;17.33;15.50;;;;;;;1.43;72.58;100720.72;5074082;28;20265;-79
2021/12/23 12:03:54;;;;;;;18.60;16.73;;;;;;;1.39;72.03;100752.34;5074399;28;20209;-79
2021/12/23 12:06:23;;;;;;;18.60;16.33;;;;;;;1.47;73.33;100719.97;5074850;28;20548;-81
2021/12/23 12:08:53;;;;;;;19.57;17.63;;;;;;;1.54;73.30;100721.81;5074913;28;20254;-79
2021/12/23 12:11:21;;;;;;;17.13;15.33;;;;;;;1.28;70.82;100735.78;5074342;28;20219;-79
2021/12/23 12:13:48;;;;;;;20.70;17.63;;;;;;;1.28;72.81;100731.50;5075005;28;20216;-79
2021/12/23 12:16:33;;;;;;;18.77;16.60;;;;;;;1.45;73.00;100713.03;5075072;28;20201;-78